createdAt,value
2019-01-31T00:00:36.510Z,11.70
2019-01-31T00:03:17.367Z,13.93
2019-01-31T00:05:58.490Z,12.80
2019-01-31T00:08:45.448Z,13.70
2019-01-31T00:11:22.046Z,12.93
2019-01-31T00:14:03.105Z,12.47
2019-01-31T00:16:43.802Z,13.87
2019-01-31T00:19:24.855Z,13.40
2019-01-31T00:22:05.778Z,13.50
2019-01-31T00:24:46.549Z,14.63
2019-01-31T00:27:27.474Z,14.07
2019-01-31T00:30:08.594Z,13.53
2019-01-31T00:32:49.455Z,14.17
2019-01-31T00:35:30.350Z,14.90
2019-01-31T00:38:11.314Z,13.60
2019-01-31T00:40:52.042Z,14.17
2019-01-31T00:43:33.167Z,14.17
2019-01-31T00:46:13.815Z,14.80
2019-01-31T00:48:54.930Z,14.67
2019-01-31T00:51:35.762Z,15.13
2019-01-31T00:54:16.324Z,15.33
2019-01-31T00:56:56.879Z,15.03
2019-01-31T00:59:37.708Z,14.67
2019-01-31T01:02:18.419Z,14.80
2019-01-31T01:04:59.141Z,15.67
2019-01-31T01:07:39.807Z,15.70
2019-01-31T01:10:20.371Z,14.67
2019-01-31T01:13:01.187Z,15.67
2019-01-31T01:15:41.777Z,15.87
2019-01-31T01:18:22.395Z,14.37
2019-01-31T01:21:03.074Z,13.43
2019-01-31T01:23:43.715Z,13.90
2019-01-31T01:26:24.530Z,14.77
2019-01-31T01:29:05.098Z,15.73
2019-01-31T01:31:45.663Z,14.50
2019-01-31T01:34:26.653Z,14.73
2019-01-31T01:37:07.698Z,15.03
2019-01-31T01:43:07.961Z,14.20
2019-01-31T01:45:49.130Z,14.87
2019-01-31T01:48:29.844Z,14.20
2019-01-31T01:51:10.541Z,14.40
2019-01-31T01:53:51.398Z,14.13
2019-01-31T01:56:32.234Z,14.73
2019-01-31T01:59:12.849Z,14.00
2019-01-31T02:01:53.509Z,13.70
2019-01-31T02:04:34.250Z,13.83
2019-01-31T02:10:22.874Z,13.17
2019-01-31T02:16:11.247Z,13.07
2019-01-31T02:18:51.779Z,13.57
2019-01-31T02:21:32.442Z,13.13
2019-01-31T02:24:13.419Z,14.07
2019-01-31T02:26:53.878Z,13.30
2019-01-31T02:29:34.610Z,12.73
2019-01-31T02:32:15.274Z,13.10
2019-01-31T02:38:04.272Z,13.03
2019-01-31T02:40:45.190Z,12.90
2019-01-31T02:43:25.702Z,12.20
2019-01-31T02:46:06.289Z,11.67
2019-01-31T02:48:46.938Z,10.90
2019-01-31T02:51:27.774Z,12.47
2019-01-31T02:54:08.498Z,10.43
2019-01-31T02:56:49.291Z,10.70
2019-01-31T03:02:38.146Z,10.13
2019-01-31T03:05:19.115Z,10.63
2019-01-31T03:07:59.995Z,10.50
2019-01-31T03:10:40.897Z,10.47
2019-01-31T03:13:21.743Z,10.73
2019-01-31T03:16:02.244Z,10.63
2019-01-31T03:18:42.915Z,10.27
2019-01-31T03:21:23.415Z,10.00
2019-01-31T03:24:03.916Z,10.63
2019-01-31T03:26:44.402Z,10.83
2019-01-31T03:29:25.011Z,10.83
2019-01-31T03:32:05.620Z,9.93
2019-01-31T03:34:46.406Z,11.13
2019-01-31T03:37:27.011Z,11.43
2019-01-31T03:40:07.912Z,10.13
2019-01-31T03:42:48.250Z,10.90
2019-01-31T03:45:29.019Z,10.07
2019-01-31T03:48:09.487Z,10.70
2019-01-31T03:50:49.979Z,10.47
2019-01-31T03:53:30.692Z,10.13
2019-01-31T03:56:11.632Z,10.30
2019-01-31T03:58:52.463Z,10.50
2019-01-31T04:01:33.347Z,10.97
2019-01-31T04:04:14.102Z,9.50
2019-01-31T04:06:54.939Z,9.97
2019-01-31T04:09:35.841Z,9.13
2019-01-31T04:12:16.769Z,8.93
2019-01-31T04:14:57.515Z,10.37
2019-01-31T04:20:57.465Z,9.60
2019-01-31T04:23:38.083Z,8.90
2019-01-31T04:26:18.921Z,9.50
2019-01-31T04:28:59.518Z,8.87
2019-01-31T04:31:39.911Z,9.33
2019-01-31T04:34:20.634Z,9.07
2019-01-31T04:37:01.515Z,8.77
2019-01-31T04:39:42.117Z,7.83
2019-01-31T04:42:22.811Z,9.53
2019-01-31T04:45:03.494Z,9.03
2019-01-31T04:47:44.534Z,8.77
2019-01-31T04:50:25.330Z,9.40
2019-01-31T04:53:06.215Z,8.97
2019-01-31T04:55:46.926Z,8.80
2019-01-31T04:58:27.795Z,8.73
2019-01-31T05:01:08.784Z,8.43
2019-01-31T05:03:49.718Z,8.40
2019-01-31T05:06:30.582Z,9.07
2019-01-31T05:09:11.239Z,9.03
2019-01-31T05:11:52.010Z,9.63
2019-01-31T05:14:32.760Z,9.20
2019-01-31T05:17:13.871Z,8.47
2019-01-31T05:19:54.151Z,8.57
2019-01-31T05:22:34.729Z,8.90
2019-01-31T05:25:15.576Z,8.63
2019-01-31T05:27:56.474Z,7.43
2019-01-31T05:30:37.633Z,7.83
2019-01-31T05:33:18.458Z,7.90
2019-01-31T05:35:59.089Z,7.80
2019-01-31T05:38:39.822Z,8.37
2019-01-31T05:41:20.331Z,8.07
2019-01-31T05:44:00.948Z,8.53
2019-01-31T05:46:41.702Z,8.40
2019-01-31T05:49:22.452Z,9.47
2019-01-31T05:52:03.200Z,9.13
2019-01-31T05:54:43.845Z,8.53
2019-01-31T05:57:24.682Z,8.50
2019-01-31T06:00:05.521Z,9.23
2019-01-31T06:02:46.132Z,8.67
2019-01-31T06:05:26.557Z,8.43
2019-01-31T06:08:07.454Z,7.67
2019-01-31T06:10:48.392Z,8.50
2019-01-31T06:13:29.286Z,8.53
2019-01-31T06:16:10.096Z,8.83
2019-01-31T06:21:59.616Z,8.43
2019-01-31T06:24:40.282Z,8.53
2019-01-31T06:27:21.007Z,8.93
2019-01-31T06:30:21.400Z,8.33
2019-01-31T06:33:01.738Z,8.23
2019-01-31T06:35:42.410Z,8.70
2019-01-31T06:38:23.022Z,9.37
2019-01-31T06:41:03.540Z,8.87
2019-01-31T06:43:44.306Z,8.97
2019-01-31T06:46:25.078Z,9.17
2019-01-31T06:49:05.777Z,9.10
2019-01-31T06:51:46.247Z,9.27
2019-01-31T06:54:26.907Z,8.53
2019-01-31T06:57:07.418Z,9.40
2019-01-31T06:59:48.015Z,9.17
2019-01-31T07:02:28.570Z,8.97
2019-01-31T07:05:09.852Z,9.07
2019-01-31T07:07:50.419Z,9.50
2019-01-31T07:10:31.062Z,9.10
2019-01-31T07:13:11.706Z,9.07
2019-01-31T07:15:52.411Z,8.67
2019-01-31T07:18:33.006Z,9.43
2019-01-31T07:21:14.640Z,9.17
2019-01-31T07:27:00.727Z,8.50
2019-01-31T07:29:41.529Z,9.27
2019-01-31T07:32:22.410Z,9.57
2019-01-31T07:35:03.228Z,9.30
2019-01-31T07:37:43.975Z,8.63
2019-01-31T07:40:24.898Z,8.77
2019-01-31T07:43:05.519Z,8.27
2019-01-31T07:45:46.119Z,8.60
2019-01-31T07:48:27.355Z,8.67
2019-01-31T07:51:08.274Z,8.27
2019-01-31T07:53:49.099Z,8.43
2019-01-31T07:56:30.050Z,8.83
2019-01-31T07:59:10.879Z,8.97
2019-01-31T08:01:51.755Z,7.87
2019-01-31T08:04:32.375Z,8.50
2019-01-31T08:07:12.871Z,7.67
2019-01-31T08:09:56.048Z,7.53
2019-01-31T08:12:36.386Z,8.30
2019-01-31T08:15:17.183Z,7.73
2019-01-31T08:17:57.971Z,7.60
2019-01-31T08:23:43.844Z,6.97
2019-01-31T08:26:24.742Z,6.83
2019-01-31T08:29:05.645Z,6.97
2019-01-31T08:31:46.094Z,7.30
2019-01-31T08:34:26.708Z,6.40
2019-01-31T08:37:07.424Z,6.77
2019-01-31T08:39:48.288Z,7.00
2019-01-31T08:42:29.082Z,7.43
2019-01-31T08:45:10.323Z,6.87
2019-01-31T08:47:51.558Z,7.03
2019-01-31T08:50:32.074Z,6.83
2019-01-31T08:53:12.797Z,6.87
2019-01-31T08:55:53.242Z,7.33
2019-01-31T08:58:33.850Z,7.17
2019-01-31T09:01:14.488Z,7.37
2019-01-31T09:03:55.125Z,7.20
2019-01-31T09:06:35.896Z,7.10
2019-01-31T09:09:16.587Z,7.27
2019-01-31T09:11:57.693Z,6.97
2019-01-31T09:14:38.336Z,6.80
2019-01-31T09:17:19.327Z,7.43
2019-01-31T09:19:59.725Z,7.03
2019-01-31T09:22:40.621Z,6.23
2019-01-31T09:25:21.187Z,6.33
2019-01-31T09:28:01.503Z,6.40
2019-01-31T09:30:41.914Z,5.93
2019-01-31T09:33:22.522Z,6.53
2019-01-31T09:36:03.190Z,5.43
2019-01-31T09:38:44.030Z,6.27
2019-01-31T09:41:24.559Z,6.07
2019-01-31T09:44:05.023Z,6.00
2019-01-31T09:46:45.759Z,6.00
2019-01-31T09:49:26.169Z,6.20
2019-01-31T09:52:07.135Z,6.70
2019-01-31T09:54:47.791Z,5.80
2019-01-31T09:57:28.717Z,5.70
2019-01-31T10:00:09.205Z,5.93
2019-01-31T10:02:49.839Z,6.70
2019-01-31T10:05:30.531Z,6.33
2019-01-31T10:08:11.154Z,6.37
2019-01-31T10:10:52.081Z,5.90
2019-01-31T10:13:32.575Z,5.70
2019-01-31T10:16:12.923Z,5.53
2019-01-31T10:18:53.949Z,6.00
2019-01-31T10:21:34.659Z,6.03
2019-01-31T10:24:15.086Z,5.93
2019-01-31T10:26:55.528Z,5.70
2019-01-31T10:29:36.362Z,5.50
2019-01-31T10:32:16.931Z,4.80
2019-01-31T10:34:57.468Z,5.07
2019-01-31T10:37:38.287Z,5.20
2019-01-31T10:40:18.965Z,5.30
2019-01-31T10:42:59.756Z,5.27
2019-01-31T10:45:40.625Z,4.70
2019-01-31T10:51:29.610Z,4.57
2019-01-31T10:54:10.762Z,4.20
2019-01-31T10:56:51.788Z,4.40
2019-01-31T10:59:32.254Z,4.50
2019-01-31T11:02:13.102Z,4.70
2019-01-31T11:04:53.882Z,4.83
2019-01-31T11:10:42.810Z,4.07
2019-01-31T11:13:23.332Z,4.17
2019-01-31T11:16:03.989Z,4.70
2019-01-31T11:18:44.335Z,4.30
2019-01-31T11:21:25.242Z,3.37
2019-01-31T11:24:06.114Z,3.73
2019-01-31T11:26:46.963Z,3.67
2019-01-31T11:29:28.143Z,3.97
2019-01-31T11:32:08.771Z,3.60
2019-01-31T11:34:49.659Z,3.53
2019-01-31T11:37:30.487Z,3.80
2019-01-31T11:40:11.215Z,3.30
2019-01-31T11:42:52.045Z,3.43
2019-01-31T11:45:32.881Z,3.47
2019-01-31T11:48:13.597Z,4.07
2019-01-31T11:50:54.051Z,3.57
2019-01-31T11:53:34.417Z,3.37
2019-01-31T11:56:14.962Z,3.90
2019-01-31T11:58:55.528Z,3.57
2019-01-31T12:01:35.895Z,3.50
2019-01-31T12:04:16.847Z,4.40
2019-01-31T12:06:57.286Z,3.73
2019-01-31T12:09:38.211Z,4.40
2019-01-31T12:12:18.691Z,3.67
2019-01-31T12:14:59.219Z,3.67
2019-01-31T12:17:39.666Z,3.57
2019-01-31T12:20:20.409Z,3.93
2019-01-31T12:23:00.747Z,3.87
2019-01-31T12:25:41.907Z,3.73
2019-01-31T12:28:22.884Z,3.57
2019-01-31T12:31:03.673Z,3.10
2019-01-31T12:33:44.398Z,3.40
2019-01-31T12:36:25.347Z,3.73
2019-01-31T12:39:06.258Z,3.57
2019-01-31T12:41:46.899Z,3.40
2019-01-31T12:44:27.771Z,3.77
2019-01-31T12:47:08.254Z,3.30
2019-01-31T12:49:48.674Z,3.70
2019-01-31T12:52:29.446Z,3.27
2019-01-31T12:55:10.035Z,3.57
2019-01-31T12:57:50.534Z,3.70
2019-01-31T13:00:31.560Z,3.20
2019-01-31T13:03:00.106Z,3.30
2019-01-31T13:05:48.090Z,3.60
2019-01-31T13:11:18.030Z,2.17
2019-01-31T13:13:58.857Z,2.47
2019-01-31T13:16:39.419Z,2.33
2019-01-31T13:19:19.932Z,2.60
2019-01-31T13:22:00.586Z,3.30
2019-01-31T13:24:41.443Z,2.83
2019-01-31T13:27:22.259Z,2.80
2019-01-31T13:30:02.584Z,2.70
2019-01-31T13:32:43.104Z,2.30
2019-01-31T13:35:23.634Z,2.23
2019-01-31T13:38:04.615Z,2.77
2019-01-31T13:40:45.487Z,2.57
2019-01-31T13:43:26.104Z,2.57
2019-01-31T13:46:07.381Z,3.30
2019-01-31T13:48:47.950Z,3.20
2019-01-31T13:51:28.451Z,2.73
2019-01-31T13:54:08.858Z,2.50
2019-01-31T13:56:49.925Z,2.50
2019-01-31T13:59:30.520Z,2.33
2019-01-31T14:02:11.501Z,2.70
2019-01-31T14:04:52.459Z,2.40
2019-01-31T14:07:33.155Z,2.43
2019-01-31T14:10:13.575Z,2.47
2019-01-31T14:12:54.333Z,2.00
2019-01-31T14:15:34.730Z,2.50
2019-01-31T14:18:15.443Z,3.00
2019-01-31T14:20:55.963Z,2.43
2019-01-31T14:23:36.318Z,3.07
2019-01-31T14:26:16.691Z,3.00
2019-01-31T14:28:57.403Z,2.90
2019-01-31T14:31:38.015Z,2.70
2019-01-31T14:34:18.762Z,2.93
2019-01-31T14:36:59.487Z,3.00
2019-01-31T14:42:59.323Z,2.90
2019-01-31T14:45:40.054Z,3.43
2019-01-31T14:48:20.857Z,3.00
2019-01-31T14:51:01.571Z,3.20
2019-01-31T14:53:41.992Z,3.33
2019-01-31T14:56:22.711Z,3.50
2019-01-31T15:02:08.719Z,3.43
2019-01-31T15:04:49.446Z,3.50
2019-01-31T15:07:30.336Z,3.60
2019-01-31T15:10:10.937Z,3.40
2019-01-31T15:12:51.794Z,3.77
2019-01-31T15:15:32.578Z,3.60
2019-01-31T15:18:13.339Z,3.40
2019-01-31T15:20:53.967Z,3.37
2019-01-31T15:23:34.721Z,3.50
2019-01-31T15:26:15.352Z,3.53
2019-01-31T15:28:55.934Z,3.20
2019-01-31T15:31:36.786Z,3.70
2019-01-31T15:34:17.378Z,3.83
2019-01-31T15:36:57.975Z,3.40
2019-01-31T15:39:38.850Z,3.30
2019-01-31T15:42:19.582Z,3.40
2019-01-31T15:45:00.353Z,2.90
2019-01-31T15:50:46.068Z,2.90
2019-01-31T15:53:27.281Z,2.50
2019-01-31T15:56:07.622Z,2.37
2019-01-31T15:58:49.012Z,2.00
2019-01-31T16:01:29.738Z,2.33
2019-01-31T16:04:10.243Z,2.40
2019-01-31T16:06:51.295Z,2.30
2019-01-31T16:09:32.122Z,2.30
2019-01-31T16:12:13.261Z,2.30
2019-01-31T16:14:55.168Z,2.20
2019-01-31T16:17:36.462Z,1.87
2019-01-31T16:20:17.079Z,2.30
2019-01-31T16:23:17.144Z,2.00
2019-01-31T16:25:57.491Z,2.37
2019-01-31T16:28:38.009Z,2.10
2019-01-31T16:31:18.836Z,2.17
2019-01-31T16:33:59.468Z,2.43
2019-01-31T16:36:40.002Z,2.47
2019-01-31T16:39:20.752Z,2.23
2019-01-31T16:41:49.286Z,2.17
2019-01-31T16:44:37.189Z,2.17
2019-01-31T16:47:25.079Z,2.57
2019-01-31T16:50:14.990Z,2.10
2019-01-31T16:53:02.962Z,2.20
2019-01-31T16:55:50.842Z,2.30
2019-01-31T16:58:38.746Z,2.40
2019-01-31T17:01:26.622Z,2.50
2019-01-31T17:04:14.593Z,2.63
2019-01-31T17:07:02.470Z,1.80
2019-01-31T17:09:50.365Z,2.20
2019-01-31T17:12:31.119Z,2.20
2019-01-31T17:15:18.206Z,2.13
2019-01-31T17:17:54.755Z,2.27
2019-01-31T17:20:35.422Z,7.33
2019-01-31T17:23:15.876Z,7.27
2019-01-31T17:25:56.854Z,3.87
2019-01-31T17:28:37.636Z,3.63
2019-01-31T17:31:18.803Z,3.37
2019-01-31T17:33:59.741Z,3.63
2019-01-31T17:36:40.185Z,2.93
2019-01-31T17:39:20.566Z,3.00
2019-01-31T17:42:04.212Z,2.80
2019-01-31T17:44:43.762Z,2.60
2019-01-31T17:47:24.115Z,2.60
2019-01-31T17:50:04.975Z,2.80
2019-01-31T17:52:45.703Z,3.10
2019-01-31T17:58:34.907Z,2.83
2019-01-31T18:01:15.599Z,2.67
2019-01-31T18:03:56.231Z,2.13
2019-01-31T18:06:36.739Z,2.33
2019-01-31T18:09:17.786Z,2.20
2019-01-31T18:11:58.570Z,2.27
2019-01-31T18:14:39.523Z,2.33
2019-01-31T18:17:20.168Z,2.23
2019-01-31T18:23:05.903Z,2.50
2019-01-31T18:25:46.675Z,2.33
2019-01-31T18:28:27.361Z,2.43
2019-01-31T18:31:08.064Z,2.53
2019-01-31T18:33:48.467Z,2.20
2019-01-31T18:36:28.940Z,2.70
2019-01-31T18:39:09.502Z,2.37
2019-01-31T18:41:50.281Z,2.47
2019-01-31T18:44:30.835Z,2.07
2019-01-31T18:47:11.174Z,2.20
2019-01-31T18:49:51.746Z,2.23
2019-01-31T18:52:32.630Z,2.13
2019-01-31T18:55:13.203Z,2.10
2019-01-31T18:57:54.443Z,2.00
2019-01-31T19:00:35.885Z,2.13
2019-01-31T19:03:16.470Z,2.20
2019-01-31T19:05:57.547Z,2.23
2019-01-31T19:08:37.953Z,2.20
2019-01-31T19:11:19.033Z,2.23
2019-01-31T19:14:18.815Z,2.00
2019-01-31T19:16:59.139Z,2.40
2019-01-31T19:19:40.085Z,1.97
2019-01-31T19:22:20.746Z,2.63
2019-01-31T19:25:01.220Z,1.97
2019-01-31T19:27:41.950Z,2.60
2019-01-31T19:30:22.651Z,2.30
2019-01-31T19:33:03.087Z,2.30
2019-01-31T19:35:43.754Z,2.10
2019-01-31T19:38:24.526Z,2.33
2019-01-31T19:41:05.713Z,2.10
2019-01-31T19:43:34.230Z,2.50
2019-01-31T19:46:22.131Z,2.33
2019-01-31T19:49:10.011Z,2.03
2019-01-31T19:51:57.914Z,2.33
2019-01-31T19:54:45.798Z,2.20
2019-01-31T19:57:33.834Z,2.37
2019-01-31T20:00:42.434Z,2.23
2019-01-31T20:03:30.333Z,2.40
2019-01-31T20:06:18.307Z,2.40
2019-01-31T20:09:26.929Z,2.60
2019-01-31T20:12:08.236Z,2.37
2019-01-31T20:14:49.249Z,2.30
2019-01-31T20:17:29.863Z,2.50
2019-01-31T20:20:11.162Z,2.57
2019-01-31T20:22:51.607Z,2.30
2019-01-31T20:25:32.042Z,2.20
2019-01-31T20:28:12.573Z,2.37
2019-01-31T20:30:53.188Z,2.23
2019-01-31T20:33:33.855Z,2.17
2019-01-31T20:36:14.879Z,2.43
2019-01-31T20:38:55.766Z,2.13
2019-01-31T20:41:36.655Z,2.47
2019-01-31T20:44:17.530Z,2.50
2019-01-31T20:46:57.994Z,2.50
2019-01-31T20:49:38.599Z,2.73
2019-01-31T20:58:29.239Z,3.10
2019-01-31T21:01:10.121Z,2.70
2019-01-31T21:03:50.775Z,3.07
2019-01-31T21:06:41.223Z,2.43
2019-01-31T21:09:13.786Z,2.93
2019-01-31T21:11:54.661Z,2.93
2019-01-31T21:14:35.547Z,2.87
2019-01-31T21:17:16.255Z,2.80
2019-01-31T21:19:57.270Z,2.80
2019-01-31T21:22:37.971Z,2.87
2019-01-31T21:25:18.896Z,3.27
2019-01-31T21:27:59.493Z,2.50
2019-01-31T21:30:39.930Z,2.60
2019-01-31T21:33:20.542Z,2.60
2019-01-31T21:36:01.445Z,2.90
2019-01-31T21:38:42.440Z,2.93
2019-01-31T21:41:23.609Z,3.07
2019-01-31T21:44:04.383Z,2.73
2019-01-31T21:46:44.860Z,2.93
2019-01-31T21:49:25.651Z,3.50
2019-01-31T21:55:25.480Z,2.80
2019-01-31T21:58:05.846Z,2.97
2019-01-31T22:00:46.300Z,3.10
2019-01-31T22:03:26.962Z,3.10
2019-01-31T22:06:07.927Z,2.63
2019-01-31T22:08:48.270Z,2.97
2019-01-31T22:11:29.048Z,2.80
2019-01-31T22:14:09.781Z,3.07
2019-01-31T22:16:50.158Z,3.50
2019-01-31T22:22:39.021Z,4.50
2019-01-31T22:25:19.618Z,3.80
2019-01-31T22:28:00.384Z,3.70
2019-01-31T22:30:41.153Z,3.30
2019-01-31T22:33:22.003Z,2.80
2019-01-31T22:36:02.806Z,2.90
2019-01-31T22:38:45.570Z,3.07
2019-01-31T22:41:25.557Z,2.87
2019-01-31T22:44:06.378Z,2.80
2019-01-31T22:46:46.733Z,2.77
2019-01-31T22:49:27.420Z,3.43
2019-01-31T22:52:08.410Z,2.60
2019-01-31T22:54:49.102Z,2.53
2019-01-31T22:57:29.855Z,2.70
2019-01-31T23:00:12.215Z,2.70
2019-01-31T23:02:53.103Z,2.73
2019-01-31T23:05:33.750Z,2.50
2019-01-31T23:08:14.973Z,2.60
2019-01-31T23:10:55.841Z,2.70
2019-01-31T23:13:36.353Z,2.80
2019-01-31T23:16:17.295Z,2.73
2019-01-31T23:18:58.105Z,2.87
2019-01-31T23:21:38.858Z,2.50
2019-01-31T23:24:19.680Z,2.80
2019-01-31T23:27:00.651Z,2.80
2019-01-31T23:29:41.494Z,2.77
2019-01-31T23:32:22.191Z,2.87
2019-01-31T23:35:03.371Z,2.50
2019-01-31T23:37:43.789Z,2.70
2019-01-31T23:40:24.459Z,2.70
2019-01-31T23:43:05.081Z,3.20
2019-01-31T23:45:45.760Z,2.63
2019-01-31T23:48:14.238Z,2.93
2019-01-31T23:51:02.135Z,2.50
2019-01-31T23:53:50.028Z,2.80
2019-01-31T23:56:37.926Z,2.57
2019-01-31T23:59:25.808Z,2.60
